Ek-star — LAMT5 — position and weather

sailwx.info

Track history (hours):
 
Tides and Currents Weather Stations Pressure Air Temp Water Temp Dewpoint Dewpoint Depression Visibility Wind Speed Wind Dir Waves Ship Positions

Ek-star

Last reported at 2016-Apr-30 23:16 UTC. Time now 2016-May-01 04:18 UTC.
Position N 52°10' E 003°44'.

Length 135 m; draft 8.6 m.

Type: Ship (hazmat cat A). MMSI: 257433000.

Date/timePositionNaut miles runAvg speedWind from/ knotsBaromVisibWave heightAir tempDewpointWater temp
2016-Apr-30 23:16N 52°10' E 003°44'0 0.0
2016-Apr-30 22:13N 52°10' E 003°44'0 0.0
2016-Apr-30 21:25N 52°10' E 003°44'0 0.0
2016-Apr-30 20:31N 52°10' E 003°44'6 6.1
2016-Apr-30 19:31N 52°16' E 003°47'1212.8
2016-Apr-30 18:32N 52°28' E 003°52'7412.3
2016-Apr-30 12:33N 53°32' E 004°52'1212.3
2016-Apr-30 11:33N 53°37' E 005°12'1212.1
2016-Apr-30 10:33N 53°40' E 005°31'1212.1
2016-Apr-30 09:33N 53°44' E 005°51'1312.7
2016-Apr-30 08:33N 53°48' E 006°11'1312.9
2016-Apr-30 07:33N 53°52' E 006°32'1313.1
2016-Apr-30 06:33N 53°55' E 006°53'1313.0
2016-Apr-30 05:34N 53°58' E 007°15'1313.0
2016-Apr-30 04:33N 54°01' E 007°36'1312.8
2016-Apr-30 03:33N 54°01' E 007°58'1212.2
2016-Apr-30 02:33N 53°60' E 008°19'1111.5
2016-Apr-30 01:33N 53°57' E 008°38'1211.7
2016-Apr-30 00:33N 53°51' E 008°54'9 8.9
2016-Apr-29 23:33N 53°54' E 009°09'3 3.1
2016-Apr-29 22:33N 53°56' E 009°12'7 6.5
2016-Apr-29 21:33N 54°01' E 009°18'7 6.5
2016-Apr-29 20:25N 54°09' E 009°21'12 4.3
2016-Apr-29 17:33N 54°16' E 009°38'6 6.1
2016-Apr-29 16:34N 54°20' E 009°45'6 5.7
2016-Apr-29 15:33N 54°21' E 009°55'5 4.7
2016-Apr-29 14:33N 54°22' E 010°03'3 2.8
2016-Apr-29 13:33N 54°22' E 010°07'0 0.2
2016-Apr-29 12:33N 54°22' E 010°08'0 0.0
2016-Apr-29 11:33N 54°22' E 010°08'0 0.0
2016-Apr-29 10:33N 54°22' E 010°08'0 0.0
2016-Apr-29 09:33N 54°22' E 010°08'1 0.6
2016-Apr-29 08:33N 54°22' E 010°09'6 5.7
2016-Apr-29 07:33N 54°27' E 010°14'1211.8
2016-Apr-29 06:33N 54°34' E 010°30'1312.6
2016-Apr-29 05:33N 54°35' E 010°52'1312.7
2016-Apr-29 04:33N 54°36' E 011°14'1312.9
2016-Apr-29 03:33N 54°30' E 011°33'1312.5
2016-Apr-29 02:33N 54°26' E 011°54'1111.1
2016-Apr-29 01:33N 54°29' E 012°12'1212.3
2016-Apr-29 00:33N 54°40' E 012°22'4012.6
2016-Apr-28 21:23N 54°56' E 013°26'1012.7
2016-Apr-28 20:33N 54°60' E 013°43'1312.7
2016-Apr-28 19:33N 55°04' E 014°04'1312.6
2016-Apr-28 18:33N 55°14' E 014°18'1312.8
2016-Apr-28 17:33N 55°23' E 014°32'1312.6
2016-Apr-28 16:33N 55°31' E 014°51'1312.7
2016-Apr-28 15:33N 55°38' E 015°10'35212.5
2016-Apr-27 11:29N 59°37' E 023°12'1213.0
2016-Apr-27 10:31N 59°40' E 023°36'1313.0
2016-Apr-27 09:33N 59°44' E 023°60'7712.4
2016-Apr-27 03:19N 60°01' E 026°30'2511.1
2016-Apr-27 01:06N 60°04' E 027°19'812.2
2016-Apr-27 00:27N 60°08' E 027°32'1011.5
2016-Apr-26 23:33N 60°11' E 027°52'1212.4
2016-Apr-26 22:33N 60°08' E 028°16'1212.0
2016-Apr-26 21:33N 60°03' E 028°38'1212.4
2016-Apr-26 20:33N 60°02' E 029°03'1812.0
2016-Apr-26 19:04N 60°00' E 029°38'5 9.6
2016-Apr-26 18:33N 59°58' E 029°47'1110.7
2016-Apr-26 17:33N 59°54' E 030°07'4 3.7
2016-Apr-26 16:33N 59°52' E 030°13'0 0.0
2016-Apr-26 15:31N 59°52' E 030°13'0 0.0
2016-Apr-26 14:31N 59°52' E 030°13'0 0.0
2016-Apr-26 13:33N 59°52' E 030°13'0 0.0
2016-Apr-26 12:33N 59°52' E 030°13'0 0.0
2016-Apr-26 11:33N 59°52' E 030°13'0 0.0
2016-Apr-26 10:33N 59°52' E 030°13'0 0.0
2016-Apr-26 09:33N 59°52' E 030°13'0 0.0
2016-Apr-26 08:33N 59°52' E 030°13'0 0.0
2016-Apr-26 07:33N 59°52' E 030°13'0 0.0
2016-Apr-26 06:33N 59°52' E 030°13'0 0.0
2016-Apr-26 05:33N 59°52' E 030°13'0 0.0
2016-Apr-26 04:33N 59°52' E 030°13'0 0.0
2016-Apr-26 03:33N 59°52' E 030°13'0 0.0
2016-Apr-26 02:33N 59°52' E 030°13'0 0.0
2016-Apr-26 01:33N 59°52' E 030°13'0 0.0
2016-Apr-26 00:33N 59°52' E 030°13'0 0.0
2016-Apr-25 23:33N 59°52' E 030°13'0 0.0
2016-Apr-25 22:33N 59°52' E 030°13'0 0.0
2016-Apr-25 21:33N 59°52' E 030°13'0 0.0
2016-Apr-25 20:33N 59°52' E 030°13'0 0.0
2016-Apr-25 19:33N 59°52' E 030°13'0 0.0
2016-Apr-25 18:33N 59°52' E 030°13'0 0.0
2016-Apr-25 17:33N 59°52' E 030°13'0 0.0
2016-Apr-25 16:33N 59°52' E 030°13'0 0.0
2016-Apr-25 15:33N 59°52' E 030°13'0 0.0
2016-Apr-25 14:33N 59°52' E 030°13'0 0.0
2016-Apr-25 13:33N 59°52' E 030°13'0 0.0
2016-Apr-25 12:33N 59°52' E 030°13'0 0.0
2016-Apr-25 11:33N 59°52' E 030°13'0 0.0
2016-Apr-25 10:33N 59°52' E 030°13'0 0.0
2016-Apr-25 09:33N 59°52' E 030°13'0 0.0
2016-Apr-25 08:33N 59°52' E 030°13'0 0.0
2016-Apr-25 07:33N 59°52' E 030°13'0 0.0
2016-Apr-25 06:33N 59°52' E 030°13'0 0.0
2016-Apr-25 05:33N 59°52' E 030°13'0 0.0
2016-Apr-25 04:33N 59°52' E 030°13'0 0.0
2016-Apr-25 03:33N 59°52' E 030°13'0 0.0
2016-Apr-25 02:33N 59°52' E 030°13'0 0.0
2016-Apr-25 01:33N 59°52' E 030°13'0 0.4
2016-Apr-25 00:33N 59°52' E 030°13'8 7.8
2016-Apr-24 23:33N 59°56' E 029°59'1110.7
2016-Apr-24 22:33N 59°60' E 029°39'23 3.9
2016-Apr-24 16:32N 60°02' E 028°52'1111.7
2016-Apr-24 15:33N 60°03' E 028°29'1111.4
2016-Apr-24 14:34N 60°08' E 028°09'1211.9
2016-Apr-24 13:31N 60°10' E 027°45'1212.2
2016-Apr-24 12:33N 60°04' E 027°25'1312.2
2016-Apr-24 11:31N 59°58' E 027°03'1212.3
2016-Apr-24 10:33N 59°59' E 026°39'8012.4
2016-Apr-24 04:06N 59°40' E 024°04'712.8
2016-Apr-24 03:33N 59°38' E 023°51'1312.7
2016-Apr-24 02:33N 59°34' E 023°27'34212.4
2016-Apr-22 23:06N 55°42' E 015°39'712.6
2016-Apr-22 22:32N 55°38' E 015°28'1212.6
2016-Apr-22 21:33N 55°33' E 015°09'1312.6
2016-Apr-22 20:33N 55°27' E 014°49'1312.6
2016-Apr-22 19:33N 55°18' E 014°32'1212.3
2016-Apr-22 18:33N 55°10' E 014°16'1312.7
2016-Apr-22 17:33N 55°10' E 013°54'1312.8
2016-Apr-22 16:33N 55°11' E 013°32'1312.8
2016-Apr-22 15:33N 55°12' E 013°09'1313.2
2016-Apr-22 14:34N 55°16' E 012°47'1010.0
2016-Apr-22 13:33N 55°25' E 012°39'1212.3
2016-Apr-22 12:33N 55°37' E 012°42'1312.6
2016-Apr-22 11:33N 55°50' E 012°42'1413.6
2016-Apr-22 10:34N 56°03' E 012°39'1414.1
2016-Apr-22 09:33N 56°11' E 012°18'1812.3
2016-Apr-22 08:06N 56°26' E 012°00'712.7
2016-Apr-22 07:33N 56°33' E 011°57'1313.3
2016-Apr-22 06:33N 56°46' E 011°52'1313.0
2016-Apr-22 05:33N 56°58' E 011°43'1313.2
2016-Apr-22 04:33N 57°10' E 011°35'1313.4
2016-Apr-22 03:33N 57°24' E 011°35'1313.2
2016-Apr-22 02:33N 57°37' E 011°40'8 8.3
2016-Apr-22 01:33N 57°41' E 011°53'0 0.0
2016-Apr-22 00:33N 57°41' E 011°53'0 0.0
2016-Apr-21 23:33N 57°41' E 011°53'0 0.0
2016-Apr-21 22:33N 57°41' E 011°53'0 0.0
2016-Apr-21 21:33N 57°41' E 011°53'0 0.0
2016-Apr-21 20:33N 57°41' E 011°53'0 0.0
2016-Apr-21 19:33N 57°41' E 011°53'0 0.0
2016-Apr-21 18:33N 57°41' E 011°53'0 0.0
2016-Apr-21 17:33N 57°41' E 011°53'0 0.0
2016-Apr-21 16:34N 57°41' E 011°53'0 0.0
2016-Apr-21 15:33N 57°41' E 011°53'0 0.0
2016-Apr-21 14:34N 57°41' E 011°53'0 0.0
2016-Apr-21 13:34N 57°41' E 011°53'0 0.0
2016-Apr-21 12:34N 57°41' E 011°53'0 0.0
2016-Apr-21 11:19N 57°41' E 011°53'0 0.0
2016-Apr-21 10:33N 57°41' E 011°53'0 0.0
2016-Apr-21 09:33N 57°41' E 011°53'0 0.0
2016-Apr-21 08:33N 57°41' E 011°53'0 0.0
2016-Apr-21 07:33N 57°41' E 011°53'0 0.0
2016-Apr-21 06:33N 57°41' E 011°53'0 0.0
2016-Apr-21 05:33N 57°41' E 011°53'0 0.2
2016-Apr-21 04:34N 57°41' E 011°53'9 9.1
2016-Apr-21 03:33N 57°35' E 011°39'2 1.6
2016-Apr-21 02:31N 57°34' E 011°40'0 0.0
2016-Apr-21 01:28N 57°34' E 011°40'0 0.1
2016-Apr-21 00:31N 57°34' E 011°40'0 0.0
2016-Apr-20 23:31N 57°34' E 011°39'  
Track history (hours):
 
Tides and Currents Weather Stations Pressure Air Temp Water Temp Dewpoint Dewpoint Depression Visibility Wind Speed Wind Dir Waves Ship Positions

Ek-star

Last reported at 2016-Apr-30 23:16 UTC. Time now 2016-May-01 04:18 UTC.
Position N 52°10' E 003°44'.

Length 135 m; draft 8.6 m.

Type: Ship (hazmat cat A). MMSI: 257433000.

Date/timePositionNaut miles runAvg speedWind from/ knotsBaromVisibWave heightAir tempDewpointWater temp
2016-Apr-30 23:16N 52°10' E 003°44'0 0.0
2016-Apr-30 22:13N 52°10' E 003°44'0 0.0
2016-Apr-30 21:25N 52°10' E 003°44'0 0.0
2016-Apr-30 20:31N 52°10' E 003°44'6 6.1
2016-Apr-30 19:31N 52°16' E 003°47'1212.8
2016-Apr-30 18:32N 52°28' E 003°52'7412.3
2016-Apr-30 12:33N 53°32' E 004°52'1212.3
2016-Apr-30 11:33N 53°37' E 005°12'1212.1
2016-Apr-30 10:33N 53°40' E 005°31'1212.1
2016-Apr-30 09:33N 53°44' E 005°51'1312.7
2016-Apr-30 08:33N 53°48' E 006°11'1312.9
2016-Apr-30 07:33N 53°52' E 006°32'1313.1
2016-Apr-30 06:33N 53°55' E 006°53'1313.0
2016-Apr-30 05:34N 53°58' E 007°15'1313.0
2016-Apr-30 04:33N 54°01' E 007°36'1312.8
2016-Apr-30 03:33N 54°01' E 007°58'1212.2
2016-Apr-30 02:33N 53°60' E 008°19'1111.5
2016-Apr-30 01:33N 53°57' E 008°38'1211.7
2016-Apr-30 00:33N 53°51' E 008°54'9 8.9
2016-Apr-29 23:33N 53°54' E 009°09'3 3.1
2016-Apr-29 22:33N 53°56' E 009°12'7 6.5
2016-Apr-29 21:33N 54°01' E 009°18'7 6.5
2016-Apr-29 20:25N 54°09' E 009°21'12 4.3
2016-Apr-29 17:33N 54°16' E 009°38'6 6.1
2016-Apr-29 16:34N 54°20' E 009°45'6 5.7
2016-Apr-29 15:33N 54°21' E 009°55'5 4.7
2016-Apr-29 14:33N 54°22' E 010°03'3 2.8
2016-Apr-29 13:33N 54°22' E 010°07'0 0.2
2016-Apr-29 12:33N 54°22' E 010°08'0 0.0
2016-Apr-29 11:33N 54°22' E 010°08'0 0.0
2016-Apr-29 10:33N 54°22' E 010°08'0 0.0
2016-Apr-29 09:33N 54°22' E 010°08'1 0.6
2016-Apr-29 08:33N 54°22' E 010°09'6 5.7
2016-Apr-29 07:33N 54°27' E 010°14'1211.8
2016-Apr-29 06:33N 54°34' E 010°30'1312.6
2016-Apr-29 05:33N 54°35' E 010°52'1312.7
2016-Apr-29 04:33N 54°36' E 011°14'1312.9
2016-Apr-29 03:33N 54°30' E 011°33'1312.5
2016-Apr-29 02:33N 54°26' E 011°54'1111.1
2016-Apr-29 01:33N 54°29' E 012°12'1212.3
2016-Apr-29 00:33N 54°40' E 012°22'4012.6
2016-Apr-28 21:23N 54°56' E 013°26'1012.7
2016-Apr-28 20:33N 54°60' E 013°43'1312.7
2016-Apr-28 19:33N 55°04' E 014°04'1312.6
2016-Apr-28 18:33N 55°14' E 014°18'1312.8
2016-Apr-28 17:33N 55°23' E 014°32'1312.6
2016-Apr-28 16:33N 55°31' E 014°51'1312.7
2016-Apr-28 15:33N 55°38' E 015°10'35212.5
2016-Apr-27 11:29N 59°37' E 023°12'1213.0
2016-Apr-27 10:31N 59°40' E 023°36'1313.0
2016-Apr-27 09:33N 59°44' E 023°60'7712.4
2016-Apr-27 03:19N 60°01' E 026°30'2511.1
2016-Apr-27 01:06N 60°04' E 027°19'812.2
2016-Apr-27 00:27N 60°08' E 027°32'1011.5
2016-Apr-26 23:33N 60°11' E 027°52'1212.4
2016-Apr-26 22:33N 60°08' E 028°16'1212.0
2016-Apr-26 21:33N 60°03' E 028°38'1212.4
2016-Apr-26 20:33N 60°02' E 029°03'1812.0
2016-Apr-26 19:04N 60°00' E 029°38'5 9.6
2016-Apr-26 18:33N 59°58' E 029°47'1110.7
2016-Apr-26 17:33N 59°54' E 030°07'4 3.7
2016-Apr-26 16:33N 59°52' E 030°13'0 0.0
2016-Apr-26 15:31N 59°52' E 030°13'0 0.0
2016-Apr-26 14:31N 59°52' E 030°13'0 0.0
2016-Apr-26 13:33N 59°52' E 030°13'0 0.0
2016-Apr-26 12:33N 59°52' E 030°13'0 0.0
2016-Apr-26 11:33N 59°52' E 030°13'0 0.0
2016-Apr-26 10:33N 59°52' E 030°13'0 0.0
2016-Apr-26 09:33N 59°52' E 030°13'0 0.0
2016-Apr-26 08:33N 59°52' E 030°13'0 0.0
2016-Apr-26 07:33N 59°52' E 030°13'0 0.0
2016-Apr-26 06:33N 59°52' E 030°13'0 0.0
2016-Apr-26 05:33N 59°52' E 030°13'0 0.0
2016-Apr-26 04:33N 59°52' E 030°13'0 0.0
2016-Apr-26 03:33N 59°52' E 030°13'0 0.0
2016-Apr-26 02:33N 59°52' E 030°13'0 0.0
2016-Apr-26 01:33N 59°52' E 030°13'0 0.0
2016-Apr-26 00:33N 59°52' E 030°13'0 0.0
2016-Apr-25 23:33N 59°52' E 030°13'0 0.0
2016-Apr-25 22:33N 59°52' E 030°13'0 0.0
2016-Apr-25 21:33N 59°52' E 030°13'0 0.0
2016-Apr-25 20:33N 59°52' E 030°13'0 0.0
2016-Apr-25 19:33N 59°52' E 030°13'0 0.0
2016-Apr-25 18:33N 59°52' E 030°13'0 0.0
2016-Apr-25 17:33N 59°52' E 030°13'0 0.0
2016-Apr-25 16:33N 59°52' E 030°13'0 0.0
2016-Apr-25 15:33N 59°52' E 030°13'0 0.0
2016-Apr-25 14:33N 59°52' E 030°13'0 0.0
2016-Apr-25 13:33N 59°52' E 030°13'0 0.0
2016-Apr-25 12:33N 59°52' E 030°13'0 0.0
2016-Apr-25 11:33N 59°52' E 030°13'0 0.0
2016-Apr-25 10:33N 59°52' E 030°13'0 0.0
2016-Apr-25 09:33N 59°52' E 030°13'0 0.0
2016-Apr-25 08:33N 59°52' E 030°13'0 0.0
2016-Apr-25 07:33N 59°52' E 030°13'0 0.0
2016-Apr-25 06:33N 59°52' E 030°13'0 0.0
2016-Apr-25 05:33N 59°52' E 030°13'0 0.0
2016-Apr-25 04:33N 59°52' E 030°13'0 0.0
2016-Apr-25 03:33N 59°52' E 030°13'0 0.0
2016-Apr-25 02:33N 59°52' E 030°13'0 0.0
2016-Apr-25 01:33N 59°52' E 030°13'0 0.4
2016-Apr-25 00:33N 59°52' E 030°13'8 7.8
2016-Apr-24 23:33N 59°56' E 029°59'1110.7
2016-Apr-24 22:33N 59°60' E 029°39'23 3.9
2016-Apr-24 16:32N 60°02' E 028°52'1111.7
2016-Apr-24 15:33N 60°03' E 028°29'1111.4
2016-Apr-24 14:34N 60°08' E 028°09'1211.9
2016-Apr-24 13:31N 60°10' E 027°45'1212.2
2016-Apr-24 12:33N 60°04' E 027°25'1312.2
2016-Apr-24 11:31N 59°58' E 027°03'1212.3
2016-Apr-24 10:33N 59°59' E 026°39'8012.4
2016-Apr-24 04:06N 59°40' E 024°04'712.8
2016-Apr-24 03:33N 59°38' E 023°51'1312.7
2016-Apr-24 02:33N 59°34' E 023°27'34212.4
2016-Apr-22 23:06N 55°42' E 015°39'712.6
2016-Apr-22 22:32N 55°38' E 015°28'1212.6
2016-Apr-22 21:33N 55°33' E 015°09'1312.6
2016-Apr-22 20:33N 55°27' E 014°49'1312.6
2016-Apr-22 19:33N 55°18' E 014°32'1212.3
2016-Apr-22 18:33N 55°10' E 014°16'1312.7
2016-Apr-22 17:33N 55°10' E 013°54'1312.8
2016-Apr-22 16:33N 55°11' E 013°32'1312.8
2016-Apr-22 15:33N 55°12' E 013°09'1313.2
2016-Apr-22 14:34N 55°16' E 012°47'1010.0
2016-Apr-22 13:33N 55°25' E 012°39'1212.3
2016-Apr-22 12:33N 55°37' E 012°42'1312.6
2016-Apr-22 11:33N 55°50' E 012°42'1413.6
2016-Apr-22 10:34N 56°03' E 012°39'1414.1
2016-Apr-22 09:33N 56°11' E 012°18'1812.3
2016-Apr-22 08:06N 56°26' E 012°00'712.7
2016-Apr-22 07:33N 56°33' E 011°57'1313.3
2016-Apr-22 06:33N 56°46' E 011°52'1313.0
2016-Apr-22 05:33N 56°58' E 011°43'1313.2
2016-Apr-22 04:33N 57°10' E 011°35'1313.4
2016-Apr-22 03:33N 57°24' E 011°35'1313.2
2016-Apr-22 02:33N 57°37' E 011°40'8 8.3
2016-Apr-22 01:33N 57°41' E 011°53'0 0.0
2016-Apr-22 00:33N 57°41' E 011°53'0 0.0
2016-Apr-21 23:33N 57°41' E 011°53'0 0.0
2016-Apr-21 22:33N 57°41' E 011°53'0 0.0
2016-Apr-21 21:33N 57°41' E 011°53'0 0.0
2016-Apr-21 20:33N 57°41' E 011°53'0 0.0
2016-Apr-21 19:33N 57°41' E 011°53'0 0.0
2016-Apr-21 18:33N 57°41' E 011°53'0 0.0
2016-Apr-21 17:33N 57°41' E 011°53'0 0.0
2016-Apr-21 16:34N 57°41' E 011°53'0 0.0
2016-Apr-21 15:33N 57°41' E 011°53'0 0.0
2016-Apr-21 14:34N 57°41' E 011°53'0 0.0
2016-Apr-21 13:34N 57°41' E 011°53'0 0.0
2016-Apr-21 12:34N 57°41' E 011°53'0 0.0
2016-Apr-21 11:19N 57°41' E 011°53'0 0.0
2016-Apr-21 10:33N 57°41' E 011°53'0 0.0
2016-Apr-21 09:33N 57°41' E 011°53'0 0.0
2016-Apr-21 08:33N 57°41' E 011°53'0 0.0
2016-Apr-21 07:33N 57°41' E 011°53'0 0.0
2016-Apr-21 06:33N 57°41' E 011°53'0 0.0
2016-Apr-21 05:33N 57°41' E 011°53'0 0.2
2016-Apr-21 04:34N 57°41' E 011°53'9 9.1
2016-Apr-21 03:33N 57°35' E 011°39'2 1.6
2016-Apr-21 02:31N 57°34' E 011°40'0 0.0
2016-Apr-21 01:28N 57°34' E 011°40'0 0.1
2016-Apr-21 00:31N 57°34' E 011°40'0 0.0
2016-Apr-20 23:31N 57°34' E 011°39'  

Dump ship's entire track history